sensor_id;sensor_type;location;lat;lon;timestamp;P1;durP1;ratioP1;P2;durP2;ratioP2
18100;SDS011;9177;49.156;8.142;2024-02-15T00:02:17;3.47;;;2.20;;
18100;SDS011;9177;49.156;8.142;2024-02-15T00:04:45;3.07;;;1.90;;
18100;SDS011;9177;49.156;8.142;2024-02-15T00:07:12;3.47;;;1.80;;
18100;SDS011;9177;49.156;8.142;2024-02-15T00:09:39;2.87;;;1.93;;
18100;SDS011;9177;49.156;8.142;2024-02-15T00:12:06;3.83;;;1.63;;
18100;SDS011;9177;49.156;8.142;2024-02-15T00:14:35;3.67;;;1.70;;
18100;SDS011;9177;49.156;8.142;2024-02-15T00:17:03;2.60;;;1.90;;
18100;SDS011;9177;49.156;8.142;2024-02-15T00:19:30;3.53;;;2.07;;
18100;SDS011;9177;49.156;8.142;2024-02-15T00:21:59;1.93;;;1.60;;
18100;SDS011;9177;49.156;8.142;2024-02-15T00:24:26;3.63;;;2.00;;
18100;SDS011;9177;49.156;8.142;2024-02-15T00:26:53;2.73;;;1.80;;
18100;SDS011;9177;49.156;8.142;2024-02-15T00:29:20;2.57;;;1.70;;
18100;SDS011;9177;49.156;8.142;2024-02-15T00:31:47;3.10;;;1.70;;
18100;SDS011;9177;49.156;8.142;2024-02-15T00:34:15;2.37;;;1.83;;
18100;SDS011;9177;49.156;8.142;2024-02-15T00:36:42;3.90;;;1.80;;
18100;SDS011;9177;49.156;8.142;2024-02-15T00:39:11;3.30;;;1.60;;
18100;SDS011;9177;49.156;8.142;2024-02-15T00:41:39;2.83;;;1.90;;
18100;SDS011;9177;49.156;8.142;2024-02-15T00:44:07;2.83;;;1.77;;
18100;SDS011;9177;49.156;8.142;2024-02-15T00:46:35;2.80;;;1.70;;
18100;SDS011;9177;49.156;8.142;2024-02-15T00:49:02;3.00;;;1.90;;
18100;SDS011;9177;49.156;8.142;2024-02-15T00:51:31;2.53;;;1.63;;
18100;SDS011;9177;49.156;8.142;2024-02-15T00:53:58;2.20;;;1.97;;
18100;SDS011;9177;49.156;8.142;2024-02-15T00:56:27;2.50;;;1.60;;
18100;SDS011;9177;49.156;8.142;2024-02-15T00:58:55;2.23;;;1.50;;
18100;SDS011;9177;49.156;8.142;2024-02-15T01:01:22;2.60;;;1.70;;
18100;SDS011;9177;49.156;8.142;2024-02-15T01:03:49;2.23;;;1.80;;
18100;SDS011;9177;49.156;8.142;2024-02-15T01:06:16;2.50;;;1.77;;
18100;SDS011;9177;49.156;8.142;2024-02-15T01:08:44;2.33;;;1.40;;
18100;SDS011;9177;49.156;8.142;2024-02-15T01:11:11;2.27;;;1.47;;
18100;SDS011;9177;49.156;8.142;2024-02-15T01:13:40;1.97;;;1.60;;
18100;SDS011;9177;49.156;8.142;2024-02-15T01:16:07;1.97;;;1.70;;
18100;SDS011;9177;49.156;8.142;2024-02-15T01:18:34;2.17;;;1.67;;
18100;SDS011;9177;49.156;8.142;2024-02-15T01:21:03;2.67;;;1.70;;
18100;SDS011;9177;49.156;8.142;2024-02-15T01:23:31;2.60;;;1.77;;
18100;SDS011;9177;49.156;8.142;2024-02-15T01:25:59;2.37;;;1.70;;
18100;SDS011;9177;49.156;8.142;2024-02-15T01:28:26;2.30;;;1.47;;
18100;SDS011;9177;49.156;8.142;2024-02-15T01:30:55;2.43;;;1.50;;
18100;SDS011;9177;49.156;8.142;2024-02-15T01:33:22;1.90;;;1.57;;
18100;SDS011;9177;49.156;8.142;2024-02-15T01:35:49;1.73;;;1.30;;
18100;SDS011;9177;49.156;8.142;2024-02-15T01:38:16;1.80;;;1.50;;
18100;SDS011;9177;49.156;8.142;2024-02-15T01:40:46;2.47;;;1.70;;
18100;SDS011;9177;49.156;8.142;2024-02-15T01:43:14;1.43;;;1.30;;
18100;SDS011;9177;49.156;8.142;2024-02-15T01:45:41;1.87;;;1.70;;
18100;SDS011;9177;49.156;8.142;2024-02-15T01:48:10;2.20;;;1.77;;
18100;SDS011;9177;49.156;8.142;2024-02-15T01:50:37;2.27;;;1.57;;
18100;SDS011;9177;49.156;8.142;2024-02-15T01:53:05;2.50;;;1.60;;
18100;SDS011;9177;49.156;8.142;2024-02-15T01:55:34;1.43;;;1.30;;
18100;SDS011;9177;49.156;8.142;2024-02-15T01:58:02;1.47;;;1.20;;
18100;SDS011;9177;49.156;8.142;2024-02-15T02:00:30;2.10;;;1.70;;
18100;SDS011;9177;49.156;8.142;2024-02-15T02:02:57;2.20;;;1.60;;
18100;SDS011;9177;49.156;8.142;2024-02-15T02:05:29;1.83;;;1.27;;
18100;SDS011;9177;49.156;8.142;2024-02-15T02:07:57;1.77;;;1.50;;
18100;SDS011;9177;49.156;8.142;2024-02-15T02:10:26;2.23;;;1.50;;
18100;SDS011;9177;49.156;8.142;2024-02-15T02:12:57;1.53;;;1.33;;
18100;SDS011;9177;49.156;8.142;2024-02-15T02:15:26;1.50;;;1.37;;
18100;SDS011;9177;49.156;8.142;2024-02-15T02:17:56;2.17;;;1.57;;
18100;SDS011;9177;49.156;8.142;2024-02-15T02:20:25;2.57;;;1.60;;
18100;SDS011;9177;49.156;8.142;2024-02-15T02:22:54;2.63;;;1.70;;
18100;SDS011;9177;49.156;8.142;2024-02-15T02:25:28;1.80;;;1.20;;
18100;SDS011;9177;49.156;8.142;2024-02-15T02:27:56;1.90;;;1.60;;
18100;SDS011;9177;49.156;8.142;2024-02-15T02:30:23;2.27;;;1.37;;
18100;SDS011;9177;49.156;8.142;2024-02-15T02:32:54;2.60;;;1.83;;
18100;SDS011;9177;49.156;8.142;2024-02-15T02:35:22;2.30;;;1.70;;
18100;SDS011;9177;49.156;8.142;2024-02-15T02:37:49;1.73;;;1.30;;
18100;SDS011;9177;49.156;8.142;2024-02-15T02:40:18;2.07;;;1.40;;
18100;SDS011;9177;49.156;8.142;2024-02-15T02:42:50;1.53;;;1.30;;
18100;SDS011;9177;49.156;8.142;2024-02-15T02:45:21;1.63;;;1.23;;
18100;SDS011;9177;49.156;8.142;2024-02-15T02:47:49;2.37;;;1.50;;
18100;SDS011;9177;49.156;8.142;2024-02-15T02:50:17;3.50;;;1.30;;
18100;SDS011;9177;49.156;8.142;2024-02-15T02:52:44;1.60;;;1.30;;
18100;SDS011;9177;49.156;8.142;2024-02-15T02:55:10;1.57;;;1.30;;
18100;SDS011;9177;49.156;8.142;2024-02-15T02:57:38;2.10;;;1.50;;
18100;SDS011;9177;49.156;8.142;2024-02-15T03:00:08;1.60;;;1.30;;
18100;SDS011;9177;49.156;8.142;2024-02-15T03:02:38;1.80;;;1.40;;
18100;SDS011;9177;49.156;8.142;2024-02-15T03:05:05;1.53;;;1.20;;
18100;SDS011;9177;49.156;8.142;2024-02-15T03:07:33;2.00;;;1.27;;
18100;SDS011;9177;49.156;8.142;2024-02-15T03:10:01;1.97;;;1.27;;
18100;SDS011;9177;49.156;8.142;2024-02-15T03:12:33;2.50;;;1.67;;
18100;SDS011;9177;49.156;8.142;2024-02-15T03:15:01;1.70;;;1.40;;
18100;SDS011;9177;49.156;8.142;2024-02-15T03:17:30;1.63;;;1.33;;
18100;SDS011;9177;49.156;8.142;2024-02-15T03:19:58;2.47;;;1.60;;
18100;SDS011;9177;49.156;8.142;2024-02-15T03:22:24;1.70;;;1.50;;
18100;SDS011;9177;49.156;8.142;2024-02-15T03:24:52;1.43;;;1.33;;
18100;SDS011;9177;49.156;8.142;2024-02-15T03:27:20;2.07;;;1.30;;
18100;SDS011;9177;49.156;8.142;2024-02-15T03:29:48;1.43;;;1.30;;
18100;SDS011;9177;49.156;8.142;2024-02-15T03:32:16;1.90;;;1.50;;
18100;SDS011;9177;49.156;8.142;2024-02-15T03:34:44;1.30;;;1.20;;
18100;SDS011;9177;49.156;8.142;2024-02-15T03:37:11;2.07;;;1.40;;
18100;SDS011;9177;49.156;8.142;2024-02-15T03:39:38;2.50;;;1.30;;
18100;SDS011;9177;49.156;8.142;2024-02-15T03:42:06;1.57;;;1.33;;
18100;SDS011;9177;49.156;8.142;2024-02-15T03:44:33;1.57;;;1.30;;
18100;SDS011;9177;49.156;8.142;2024-02-15T03:47:00;1.40;;;1.13;;
18100;SDS011;9177;49.156;8.142;2024-02-15T03:49:27;1.93;;;1.20;;
18100;SDS011;9177;49.156;8.142;2024-02-15T03:51:58;2.13;;;1.40;;
18100;SDS011;9177;49.156;8.142;2024-02-15T03:54:25;1.53;;;1.43;;
18100;SDS011;9177;49.156;8.142;2024-02-15T03:56:55;1.70;;;1.30;;
18100;SDS011;9177;49.156;8.142;2024-02-15T03:59:22;1.40;;;1.30;;
18100;SDS011;9177;49.156;8.142;2024-02-15T04:01:52;1.90;;;1.30;;
18100;SDS011;9177;49.156;8.142;2024-02-15T04:04:19;2.30;;;1.30;;
18100;SDS011;9177;49.156;8.142;2024-02-15T04:06:47;1.90;;;1.50;;
18100;SDS011;9177;49.156;8.142;2024-02-15T04:09:16;1.30;;;1.10;;
18100;SDS011;9177;49.156;8.142;2024-02-15T04:11:43;1.80;;;1.30;;
18100;SDS011;9177;49.156;8.142;2024-02-15T04:14:12;1.50;;;1.20;;
18100;SDS011;9177;49.156;8.142;2024-02-15T04:16:39;1.40;;;1.30;;
18100;SDS011;9177;49.156;8.142;2024-02-15T04:19:06;1.50;;;1.23;;
18100;SDS011;9177;49.156;8.142;2024-02-15T04:21:34;1.47;;;1.30;;
18100;SDS011;9177;49.156;8.142;2024-02-15T04:24:01;1.33;;;1.20;;
18100;SDS011;9177;49.156;8.142;2024-02-15T04:26:30;1.73;;;1.40;;
18100;SDS011;9177;49.156;8.142;2024-02-15T04:28:57;1.47;;;1.37;;
18100;SDS011;9177;49.156;8.142;2024-02-15T04:31:25;1.60;;;1.30;;
18100;SDS011;9177;49.156;8.142;2024-02-15T04:33:52;1.23;;;1.13;;
18100;SDS011;9177;49.156;8.142;2024-02-15T04:36:20;1.80;;;1.47;;
18100;SDS011;9177;49.156;8.142;2024-02-15T04:38:50;2.00;;;1.40;;
18100;SDS011;9177;49.156;8.142;2024-02-15T04:41:17;2.03;;;1.40;;
18100;SDS011;9177;49.156;8.142;2024-02-15T04:43:49;1.70;;;1.30;;
18100;SDS011;9177;49.156;8.142;2024-02-15T04:46:16;2.03;;;1.40;;
18100;SDS011;9177;49.156;8.142;2024-02-15T04:48:46;1.47;;;1.30;;
18100;SDS011;9177;49.156;8.142;2024-02-15T04:51:14;2.43;;;1.40;;
18100;SDS011;9177;49.156;8.142;2024-02-15T04:53:42;1.47;;;1.37;;
18100;SDS011;9177;49.156;8.142;2024-02-15T04:56:11;2.67;;;1.40;;
18100;SDS011;9177;49.156;8.142;2024-02-15T04:58:40;1.80;;;1.40;;
18100;SDS011;9177;49.156;8.142;2024-02-15T05:01:15;2.07;;;1.40;;
18100;SDS011;9177;49.156;8.142;2024-02-15T05:03:43;1.80;;;1.33;;
18100;SDS011;9177;49.156;8.142;2024-02-15T05:06:10;2.30;;;1.60;;
18100;SDS011;9177;49.156;8.142;2024-02-15T05:08:38;1.60;;;1.20;;
18100;SDS011;9177;49.156;8.142;2024-02-15T05:11:07;1.53;;;1.30;;
18100;SDS011;9177;49.156;8.142;2024-02-15T05:13:40;1.30;;;1.20;;
18100;SDS011;9177;49.156;8.142;2024-02-15T05:16:07;1.50;;;1.40;;
18100;SDS011;9177;49.156;8.142;2024-02-15T05:18:36;1.40;;;1.30;;
18100;SDS011;9177;49.156;8.142;2024-02-15T05:21:05;1.80;;;1.20;;
18100;SDS011;9177;49.156;8.142;2024-02-15T05:23:34;1.73;;;1.23;;
18100;SDS011;9177;49.156;8.142;2024-02-15T05:26:02;2.03;;;1.33;;
18100;SDS011;9177;49.156;8.142;2024-02-15T05:28:30;1.60;;;1.40;;
18100;SDS011;9177;49.156;8.142;2024-02-15T05:31:10;1.73;;;1.23;;
18100;SDS011;9177;49.156;8.142;2024-02-15T05:33:39;2.23;;;1.30;;
18100;SDS011;9177;49.156;8.142;2024-02-15T05:36:09;1.20;;;1.10;;
18100;SDS011;9177;49.156;8.142;2024-02-15T05:38:38;2.20;;;1.30;;
18100;SDS011;9177;49.156;8.142;2024-02-15T05:41:06;1.97;;;1.20;;
18100;SDS011;9177;49.156;8.142;2024-02-15T05:43:33;1.10;;;1.00;;
18100;SDS011;9177;49.156;8.142;2024-02-15T05:46:01;1.60;;;1.23;;
18100;SDS011;9177;49.156;8.142;2024-02-15T05:48:29;1.37;;;1.20;;
18100;SDS011;9177;49.156;8.142;2024-02-15T05:50:58;1.60;;;1.20;;
18100;SDS011;9177;49.156;8.142;2024-02-15T05:53:25;1.70;;;1.57;;
18100;SDS011;9177;49.156;8.142;2024-02-15T05:55:54;1.70;;;1.50;;
18100;SDS011;9177;49.156;8.142;2024-02-15T05:58:23;1.30;;;1.20;;
18100;SDS011;9177;49.156;8.142;2024-02-15T06:00:50;1.90;;;1.27;;
18100;SDS011;9177;49.156;8.142;2024-02-15T06:03:18;1.17;;;1.03;;
18100;SDS011;9177;49.156;8.142;2024-02-15T06:05:47;1.43;;;1.30;;
18100;SDS011;9177;49.156;8.142;2024-02-15T06:08:16;1.37;;;1.17;;
18100;SDS011;9177;49.156;8.142;2024-02-15T06:10:45;1.37;;;1.10;;
18100;SDS011;9177;49.156;8.142;2024-02-15T06:13:13;1.30;;;1.20;;
18100;SDS011;9177;49.156;8.142;2024-02-15T06:15:40;1.33;;;1.23;;
18100;SDS011;9177;49.156;8.142;2024-02-15T06:18:08;1.30;;;1.17;;
18100;SDS011;9177;49.156;8.142;2024-02-15T06:20:39;1.40;;;1.23;;
18100;SDS011;9177;49.156;8.142;2024-02-15T06:23:08;1.80;;;1.30;;
18100;SDS011;9177;49.156;8.142;2024-02-15T06:25:37;1.30;;;1.20;;
18100;SDS011;9177;49.156;8.142;2024-02-15T06:28:04;1.20;;;1.10;;
18100;SDS011;9177;49.156;8.142;2024-02-15T06:30:39;2.20;;;1.57;;
18100;SDS011;9177;49.156;8.142;2024-02-15T06:33:24;1.23;;;1.10;;
18100;SDS011;9177;49.156;8.142;2024-02-15T06:36:08;1.53;;;1.27;;
18100;SDS011;9177;49.156;8.142;2024-02-15T06:38:53;1.30;;;1.03;;
18100;SDS011;9177;49.156;8.142;2024-02-15T06:41:41;1.57;;;1.13;;
18100;SDS011;9177;49.156;8.142;2024-02-15T06:44:08;1.07;;;0.97;;
18100;SDS011;9177;49.156;8.142;2024-02-15T06:46:35;1.40;;;1.30;;
18100;SDS011;9177;49.156;8.142;2024-02-15T06:49:04;1.97;;;1.33;;
18100;SDS011;9177;49.156;8.142;2024-02-15T06:51:31;1.80;;;1.20;;
18100;SDS011;9177;49.156;8.142;2024-02-15T06:53:58;1.50;;;1.27;;
18100;SDS011;9177;49.156;8.142;2024-02-15T06:56:25;1.67;;;1.20;;
18100;SDS011;9177;49.156;8.142;2024-02-15T06:58:54;1.37;;;1.27;;
18100;SDS011;9177;49.156;8.142;2024-02-15T07:01:23;1.53;;;1.23;;
18100;SDS011;9177;49.156;8.142;2024-02-15T07:03:51;1.40;;;1.20;;
18100;SDS011;9177;49.156;8.142;2024-02-15T07:06:18;1.63;;;1.30;;
18100;SDS011;9177;49.156;8.142;2024-02-15T07:08:45;1.50;;;1.40;;
18100;SDS011;9177;49.156;8.142;2024-02-15T07:11:13;1.47;;;1.30;;
18100;SDS011;9177;49.156;8.142;2024-02-15T07:13:40;1.97;;;1.33;;
18100;SDS011;9177;49.156;8.142;2024-02-15T07:16:09;2.17;;;1.53;;
18100;SDS011;9177;49.156;8.142;2024-02-15T07:18:36;1.23;;;1.13;;
18100;SDS011;9177;49.156;8.142;2024-02-15T07:21:04;1.20;;;1.10;;
18100;SDS011;9177;49.156;8.142;2024-02-15T07:23:36;2.23;;;1.30;;
18100;SDS011;9177;49.156;8.142;2024-02-15T07:26:03;4.37;;;1.50;;
18100;SDS011;9177;49.156;8.142;2024-02-15T07:28:30;2.60;;;1.43;;
18100;SDS011;9177;49.156;8.142;2024-02-15T07:30:57;1.93;;;1.27;;
18100;SDS011;9177;49.156;8.142;2024-02-15T07:33:26;3.63;;;1.40;;
18100;SDS011;9177;49.156;8.142;2024-02-15T07:35:54;2.60;;;1.70;;
18100;SDS011;9177;49.156;8.142;2024-02-15T07:38:21;2.95;;;1.40;;
18100;SDS011;9177;49.156;8.142;2024-02-15T07:40:50;1.87;;;1.60;;
18100;SDS011;9177;49.156;8.142;2024-02-15T07:43:18;3.53;;;1.57;;
18100;SDS011;9177;49.156;8.142;2024-02-15T07:45:45;2.70;;;1.40;;
18100;SDS011;9177;49.156;8.142;2024-02-15T07:48:14;1.77;;;1.40;;
18100;SDS011;9177;49.156;8.142;2024-02-15T07:50:43;3.27;;;1.20;;
18100;SDS011;9177;49.156;8.142;2024-02-15T07:53:10;2.50;;;1.40;;
18100;SDS011;9177;49.156;8.142;2024-02-15T07:55:38;3.50;;;1.50;;
18100;SDS011;9177;49.156;8.142;2024-02-15T07:58:07;3.33;;;1.43;;
18100;SDS011;9177;49.156;8.142;2024-02-15T08:00:34;1.77;;;1.30;;
18100;SDS011;9177;49.156;8.142;2024-02-15T08:03:03;2.10;;;1.40;;
18100;SDS011;9177;49.156;8.142;2024-02-15T08:05:30;1.83;;;1.30;;
18100;SDS011;9177;49.156;8.142;2024-02-15T08:07:59;2.30;;;1.77;;
18100;SDS011;9177;49.156;8.142;2024-02-15T08:10:27;2.07;;;1.43;;
18100;SDS011;9177;49.156;8.142;2024-02-15T08:12:54;2.13;;;1.50;;
18100;SDS011;9177;49.156;8.142;2024-02-15T08:15:23;4.07;;;1.40;;
18100;SDS011;9177;49.156;8.142;2024-02-15T08:17:52;3.47;;;1.47;;
18100;SDS011;9177;49.156;8.142;2024-02-15T08:20:20;1.60;;;1.50;;
18100;SDS011;9177;49.156;8.142;2024-02-15T08:22:47;1.27;;;1.10;;
18100;SDS011;9177;49.156;8.142;2024-02-15T08:25:16;1.57;;;1.30;;
18100;SDS011;9177;49.156;8.142;2024-02-15T08:27:47;2.07;;;1.40;;
18100;SDS011;9177;49.156;8.142;2024-02-15T08:30:15;3.43;;;1.57;;
18100;SDS011;9177;49.156;8.142;2024-02-15T08:32:43;2.37;;;1.47;;
18100;SDS011;9177;49.156;8.142;2024-02-15T08:35:13;2.43;;;1.30;;
18100;SDS011;9177;49.156;8.142;2024-02-15T08:37:41;1.10;;;1.00;;
18100;SDS011;9177;49.156;8.142;2024-02-15T08:40:12;3.67;;;1.37;;
18100;SDS011;9177;49.156;8.142;2024-02-15T08:42:42;3.03;;;1.30;;
18100;SDS011;9177;49.156;8.142;2024-02-15T08:45:10;1.70;;;1.20;;
18100;SDS011;9177;49.156;8.142;2024-02-15T08:47:38;1.93;;;1.60;;
18100;SDS011;9177;49.156;8.142;2024-02-15T08:50:06;1.47;;;1.20;;
18100;SDS011;9177;49.156;8.142;2024-02-15T08:52:34;1.43;;;1.20;;
18100;SDS011;9177;49.156;8.142;2024-02-15T08:55:03;1.73;;;1.30;;
18100;SDS011;9177;49.156;8.142;2024-02-15T08:57:32;1.73;;;1.60;;
18100;SDS011;9177;49.156;8.142;2024-02-15T09:00:01;1.77;;;1.37;;
18100;SDS011;9177;49.156;8.142;2024-02-15T09:02:30;1.70;;;1.20;;
18100;SDS011;9177;49.156;8.142;2024-02-15T09:04:58;1.47;;;1.30;;
18100;SDS011;9177;49.156;8.142;2024-02-15T09:07:25;1.20;;;1.00;;
18100;SDS011;9177;49.156;8.142;2024-02-15T09:09:52;1.53;;;1.30;;
18100;SDS011;9177;49.156;8.142;2024-02-15T09:12:20;2.07;;;1.40;;
18100;SDS011;9177;49.156;8.142;2024-02-15T09:14:47;1.63;;;1.10;;
18100;SDS011;9177;49.156;8.142;2024-02-15T09:17:16;1.60;;;1.43;;
18100;SDS011;9177;49.156;8.142;2024-02-15T09:19:43;3.33;;;1.50;;
18100;SDS011;9177;49.156;8.142;2024-02-15T09:22:10;1.73;;;1.20;;
18100;SDS011;9177;49.156;8.142;2024-02-15T09:24:37;2.10;;;1.67;;
18100;SDS011;9177;49.156;8.142;2024-02-15T09:27:04;1.40;;;1.30;;
18100;SDS011;9177;49.156;8.142;2024-02-15T09:29:31;2.43;;;1.43;;
18100;SDS011;9177;49.156;8.142;2024-02-15T09:31:58;1.57;;;1.33;;
18100;SDS011;9177;49.156;8.142;2024-02-15T09:34:28;1.90;;;1.27;;
18100;SDS011;9177;49.156;8.142;2024-02-15T09:36:56;1.80;;;1.40;;
18100;SDS011;9177;49.156;8.142;2024-02-15T09:39:23;1.70;;;1.50;;
18100;SDS011;9177;49.156;8.142;2024-02-15T09:41:49;1.57;;;1.47;;
18100;SDS011;9177;49.156;8.142;2024-02-15T09:44:23;1.70;;;1.30;;
18100;SDS011;9177;49.156;8.142;2024-02-15T09:46:55;1.43;;;1.20;;
18100;SDS011;9177;49.156;8.142;2024-02-15T09:49:30;2.20;;;1.20;;
18100;SDS011;9177;49.156;8.142;2024-02-15T09:52:04;1.40;;;1.13;;
18100;SDS011;9177;49.156;8.142;2024-02-15T09:54:36;1.40;;;1.20;;
18100;SDS011;9177;49.156;8.142;2024-02-15T09:57:06;1.77;;;1.30;;
18100;SDS011;9177;49.156;8.142;2024-02-15T09:59:34;1.43;;;1.30;;
18100;SDS011;9177;49.156;8.142;2024-02-15T10:02:01;1.93;;;1.10;;
18100;SDS011;9177;49.156;8.142;2024-02-15T10:04:30;1.27;;;1.17;;
18100;SDS011;9177;49.156;8.142;2024-02-15T10:06:59;1.40;;;1.30;;
18100;SDS011;9177;49.156;8.142;2024-02-15T10:09:27;1.37;;;1.27;;
18100;SDS011;9177;49.156;8.142;2024-02-15T10:11:55;3.57;;;1.43;;
18100;SDS011;9177;49.156;8.142;2024-02-15T10:14:22;1.30;;;1.00;;
18100;SDS011;9177;49.156;8.142;2024-02-15T10:16:50;1.33;;;1.20;;
18100;SDS011;9177;49.156;8.142;2024-02-15T10:19:18;1.40;;;1.17;;
18100;SDS011;9177;49.156;8.142;2024-02-15T10:21:52;2.38;;;1.10;;
18100;SDS011;9177;49.156;8.142;2024-02-15T10:24:21;1.23;;;1.13;;
18100;SDS011;9177;49.156;8.142;2024-02-15T10:26:51;1.70;;;1.27;;
18100;SDS011;9177;49.156;8.142;2024-02-15T10:29:19;1.23;;;1.13;;
18100;SDS011;9177;49.156;8.142;2024-02-15T10:31:52;1.47;;;1.07;;
18100;SDS011;9177;49.156;8.142;2024-02-15T10:34:21;1.23;;;1.07;;
18100;SDS011;9177;49.156;8.142;2024-02-15T10:36:48;1.37;;;1.20;;
18100;SDS011;9177;49.156;8.142;2024-02-15T10:39:17;1.10;;;1.00;;
18100;SDS011;9177;49.156;8.142;2024-02-15T10:41:45;1.53;;;1.13;;
18100;SDS011;9177;49.156;8.142;2024-02-15T10:44:17;1.20;;;1.10;;
18100;SDS011;9177;49.156;8.142;2024-02-15T10:46:45;1.80;;;1.30;;
18100;SDS011;9177;49.156;8.142;2024-02-15T10:49:16;1.33;;;1.23;;
18100;SDS011;9177;49.156;8.142;2024-02-15T10:51:48;1.30;;;1.20;;
18100;SDS011;9177;49.156;8.142;2024-02-15T10:54:22;2.13;;;1.03;;
18100;SDS011;9177;49.156;8.142;2024-02-15T10:57:05;1.43;;;0.93;;
18100;SDS011;9177;49.156;8.142;2024-02-15T10:59:34;1.10;;;1.00;;
18100;SDS011;9177;49.156;8.142;2024-02-15T11:02:04;1.73;;;1.17;;
18100;SDS011;9177;49.156;8.142;2024-02-15T11:04:48;3.37;;;1.30;;
18100;SDS011;9177;49.156;8.142;2024-02-15T11:07:21;2.23;;;1.17;;
18100;SDS011;9177;49.156;8.142;2024-02-15T11:09:52;1.97;;;1.10;;
18100;SDS011;9177;49.156;8.142;2024-02-15T11:12:21;1.77;;;1.20;;
18100;SDS011;9177;49.156;8.142;2024-02-15T11:14:48;1.87;;;1.20;;
18100;SDS011;9177;49.156;8.142;2024-02-15T11:23:23;1.53;;;1.20;;
18100;SDS011;9177;49.156;8.142;2024-02-15T11:25:53;2.07;;;0.90;;
18100;SDS011;9177;49.156;8.142;2024-02-15T11:28:40;2.87;;;1.20;;
18100;SDS011;9177;49.156;8.142;2024-02-15T11:40:14;3.22;;;1.10;;
18100;SDS011;9177;49.156;8.142;2024-02-15T11:42:43;1.13;;;0.90;;
18100;SDS011;9177;49.156;8.142;2024-02-15T11:45:11;3.73;;;1.17;;
18100;SDS011;9177;49.156;8.142;2024-02-15T11:47:39;3.63;;;1.27;;
18100;SDS011;9177;49.156;8.142;2024-02-15T11:50:08;1.63;;;0.90;;
18100;SDS011;9177;49.156;8.142;2024-02-15T11:52:40;2.17;;;1.10;;
18100;SDS011;9177;49.156;8.142;2024-02-15T11:55:07;1.20;;;1.10;;
18100;SDS011;9177;49.156;8.142;2024-02-15T11:57:38;1.30;;;1.00;;
18100;SDS011;9177;49.156;8.142;2024-02-15T12:00:21;0.90;;;0.80;;
18100;SDS011;9177;49.156;8.142;2024-02-15T12:03:06;1.98;;;1.00;;
18100;SDS011;9177;49.156;8.142;2024-02-15T12:05:50;2.35;;;1.25;;
18100;SDS011;9177;49.156;8.142;2024-02-15T12:08:35;4.05;;;1.55;;
18100;SDS011;9177;49.156;8.142;2024-02-15T12:11:19;2.53;;;1.20;;
18100;SDS011;9177;49.156;8.142;2024-02-15T12:14:04;2.40;;;1.10;;
18100;SDS011;9177;49.156;8.142;2024-02-15T12:16:59;2.53;;;1.10;;
18100;SDS011;9177;49.156;8.142;2024-02-15T12:19:48;2.97;;;1.13;;
18100;SDS011;9177;49.156;8.142;2024-02-15T12:22:17;3.60;;;1.20;;
18100;SDS011;9177;49.156;8.142;2024-02-15T12:24:53;1.87;;;1.23;;
18100;SDS011;9177;49.156;8.142;2024-02-15T12:27:21;2.53;;;1.30;;
18100;SDS011;9177;49.156;8.142;2024-02-15T12:29:55;3.10;;;1.07;;
18100;SDS011;9177;49.156;8.142;2024-02-15T12:32:25;1.20;;;0.90;;
18100;SDS011;9177;49.156;8.142;2024-02-15T12:34:53;2.77;;;1.07;;
18100;SDS011;9177;49.156;8.142;2024-02-15T12:37:38;2.40;;;1.10;;
18100;SDS011;9177;49.156;8.142;2024-02-15T12:40:16;2.00;;;1.13;;
18100;SDS011;9177;49.156;8.142;2024-02-15T12:42:45;2.20;;;1.00;;
18100;SDS011;9177;49.156;8.142;2024-02-15T12:45:16;2.17;;;0.93;;
18100;SDS011;9177;49.156;8.142;2024-02-15T12:47:48;2.73;;;1.20;;
18100;SDS011;9177;49.156;8.142;2024-02-15T12:50:17;2.47;;;1.20;;
18100;SDS011;9177;49.156;8.142;2024-02-15T12:52:47;4.43;;;1.30;;
18100;SDS011;9177;49.156;8.142;2024-02-15T12:55:15;3.30;;;0.90;;
18100;SDS011;9177;49.156;8.142;2024-02-15T12:57:45;1.97;;;0.93;;
18100;SDS011;9177;49.156;8.142;2024-02-15T13:00:17;3.93;;;1.07;;
18100;SDS011;9177;49.156;8.142;2024-02-15T13:02:46;3.67;;;1.40;;
18100;SDS011;9177;49.156;8.142;2024-02-15T13:05:15;2.50;;;1.00;;
18100;SDS011;9177;49.156;8.142;2024-02-15T13:07:43;3.97;;;1.10;;
18100;SDS011;9177;49.156;8.142;2024-02-15T13:10:12;3.23;;;0.93;;
18100;SDS011;9177;49.156;8.142;2024-02-15T13:12:40;1.93;;;1.20;;
18100;SDS011;9177;49.156;8.142;2024-02-15T13:15:09;2.50;;;0.90;;
18100;SDS011;9177;49.156;8.142;2024-02-15T13:17:39;3.37;;;1.07;;
18100;SDS011;9177;49.156;8.142;2024-02-15T13:20:09;3.30;;;1.00;;
18100;SDS011;9177;49.156;8.142;2024-02-15T13:22:40;1.00;;;0.90;;
18100;SDS011;9177;49.156;8.142;2024-02-15T13:25:09;3.37;;;1.10;;
18100;SDS011;9177;49.156;8.142;2024-02-15T13:27:36;2.87;;;1.20;;
18100;SDS011;9177;49.156;8.142;2024-02-15T13:30:04;1.30;;;0.97;;
18100;SDS011;9177;49.156;8.142;2024-02-15T13:32:34;3.83;;;1.00;;
18100;SDS011;9177;49.156;8.142;2024-02-15T13:35:03;1.47;;;1.00;;
18100;SDS011;9177;49.156;8.142;2024-02-15T13:37:41;1.23;;;0.90;;
18100;SDS011;9177;49.156;8.142;2024-02-15T13:40:12;2.23;;;1.07;;
18100;SDS011;9177;49.156;8.142;2024-02-15T13:42:42;3.80;;;0.90;;
18100;SDS011;9177;49.156;8.142;2024-02-15T13:45:14;7.30;;;1.30;;
18100;SDS011;9177;49.156;8.142;2024-02-15T13:47:43;5.43;;;1.17;;
18100;SDS011;9177;49.156;8.142;2024-02-15T13:50:12;3.80;;;1.00;;
18100;SDS011;9177;49.156;8.142;2024-02-15T13:52:42;7.37;;;1.10;;
18100;SDS011;9177;49.156;8.142;2024-02-15T13:55:10;10.97;;;1.60;;
18100;SDS011;9177;49.156;8.142;2024-02-15T13:57:39;5.87;;;1.17;;
18100;SDS011;9177;49.156;8.142;2024-02-15T14:00:10;9.53;;;1.60;;
18100;SDS011;9177;49.156;8.142;2024-02-15T14:02:46;7.10;;;1.20;;
18100;SDS011;9177;49.156;8.142;2024-02-15T14:05:13;6.13;;;1.10;;
18100;SDS011;9177;49.156;8.142;2024-02-15T14:07:46;8.10;;;1.50;;
18100;SDS011;9177;49.156;8.142;2024-02-15T14:10:14;3.00;;;1.67;;
18100;SDS011;9177;49.156;8.142;2024-02-15T14:12:43;2.53;;;1.37;;
18100;SDS011;9177;49.156;8.142;2024-02-15T14:15:10;6.80;;;1.30;;
18100;SDS011;9177;49.156;8.142;2024-02-15T14:17:37;8.47;;;1.77;;
18100;SDS011;9177;49.156;8.142;2024-02-15T14:20:04;6.90;;;1.40;;
18100;SDS011;9177;49.156;8.142;2024-02-15T14:22:34;2.15;;;0.98;;
18100;SDS011;9177;49.156;8.142;2024-02-15T14:25:02;5.33;;;1.20;;
18100;SDS011;9177;49.156;8.142;2024-02-15T14:27:30;8.07;;;1.40;;
18100;SDS011;9177;49.156;8.142;2024-02-15T14:29:58;3.17;;;1.40;;
18100;SDS011;9177;49.156;8.142;2024-02-15T14:32:43;8.67;;;1.60;;
18100;SDS011;9177;49.156;8.142;2024-02-15T14:35:28;7.80;;;1.63;;
18100;SDS011;9177;49.156;8.142;2024-02-15T14:38:00;5.57;;;1.20;;
18100;SDS011;9177;49.156;8.142;2024-02-15T14:40:32;7.80;;;1.40;;
18100;SDS011;9177;49.156;8.142;2024-02-15T14:43:00;9.07;;;3.17;;
18100;SDS011;9177;49.156;8.142;2024-02-15T14:45:27;11.50;;;3.33;;
18100;SDS011;9177;49.156;8.142;2024-02-15T14:47:55;14.17;;;5.23;;
18100;SDS011;9177;49.156;8.142;2024-02-15T14:50:23;10.53;;;4.40;;
18100;SDS011;9177;49.156;8.142;2024-02-15T14:52:50;17.80;;;5.20;;
18100;SDS011;9177;49.156;8.142;2024-02-15T14:55:18;23.67;;;9.23;;
18100;SDS011;9177;49.156;8.142;2024-02-15T14:57:47;37.00;;;12.90;;
18100;SDS011;9177;49.156;8.142;2024-02-15T15:00:14;34.13;;;12.00;;
18100;SDS011;9177;49.156;8.142;2024-02-15T15:02:46;42.37;;;15.03;;
18100;SDS011;9177;49.156;8.142;2024-02-15T15:05:15;38.53;;;13.17;;
18100;SDS011;9177;49.156;8.142;2024-02-15T15:07:59;37.77;;;15.47;;
18100;SDS011;9177;49.156;8.142;2024-02-15T15:10:45;33.83;;;15.90;;
18100;SDS011;9177;49.156;8.142;2024-02-15T15:13:31;42.93;;;15.67;;
18100;SDS011;9177;49.156;8.142;2024-02-15T15:15:58;43.70;;;17.13;;
18100;SDS011;9177;49.156;8.142;2024-02-15T15:18:25;38.37;;;17.03;;
18100;SDS011;9177;49.156;8.142;2024-02-15T15:20:53;48.53;;;18.20;;
18100;SDS011;9177;49.156;8.142;2024-02-15T15:23:21;52.13;;;18.67;;
18100;SDS011;9177;49.156;8.142;2024-02-15T15:25:48;49.67;;;19.00;;
18100;SDS011;9177;49.156;8.142;2024-02-15T15:28:15;69.60;;;29.20;;
18100;SDS011;9177;49.156;8.142;2024-02-15T15:30:45;63.90;;;28.37;;